Terminal Aerodrome Forecast
Issued by NWS Charleston, WV

Current Version | Previous Version | Graphics & Text | Print | Product List | Glossary On
Versions: 1 2 3 4 5 6 7 8 9 10 11 12 13 14 15 16 17 18 19 20 21 22 23 24 25
000
FTUS41 KRLX 300200 AAB
TAFPKB
TAF AMD
KPKB 300216Z 3002/3024 28012G22KT P6SM -SHRA OVC015
     FM300400 27010G17KT P6SM -SHRASN OVC015
     FM300500 28009G16KT P6SM -SHSN OVC010
     FM300900 29008G15KT P6SM OVC015
     FM301300 30008G15KT P6SM OVC025=

USA.gov is the U.S. government's official web portal to all federal, state and local government web resources and services.